sensor_id;sensor_type;location;lat;lon;timestamp;P1;durP1;ratioP1;P2;durP2;ratioP2
15498;SDS011;7851;52.260;6.030;2023-05-07T00:03:17;9.7;;;8.2;;
15498;SDS011;7851;52.260;6.030;2023-05-07T00:03:17;10;;;8.4;;
15498;SDS011;7851;52.260;6.030;2023-05-07T00:03:17;8.9;;;8;;
15498;SDS011;7851;52.260;6.030;2023-05-07T00:03:17;8.7;;;7.8;;
15498;SDS011;7851;52.260;6.030;2023-05-07T00:04:09;9.3;;;8.4;;
15498;SDS011;7851;52.260;6.030;2023-05-07T00:05:09;9.6;;;7.9;;
15498;SDS011;7851;52.260;6.030;2023-05-07T00:06:09;11.8;;;8.7;;
15498;SDS011;7851;52.260;6.030;2023-05-07T00:07:09;9.4;;;8.5;;
15498;SDS011;7851;52.260;6.030;2023-05-07T00:08:09;9.9;;;7.8;;
15498;SDS011;7851;52.260;6.030;2023-05-07T00:09:09;9.4;;;8.4;;
15498;SDS011;7851;52.260;6.030;2023-05-07T00:10:09;9.8;;;8.8;;
15498;SDS011;7851;52.260;6.030;2023-05-07T00:11:09;9.4;;;8.5;;
15498;SDS011;7851;52.260;6.030;2023-05-07T00:12:09;10.8;;;9.6;;
15498;SDS011;7851;52.260;6.030;2023-05-07T00:13:09;10.4;;;8.7;;
15498;SDS011;7851;52.260;6.030;2023-05-07T00:14:09;10.7;;;9.6;;
15498;SDS011;7851;52.260;6.030;2023-05-07T00:15:09;11.3;;;9.5;;
15498;SDS011;7851;52.260;6.030;2023-05-07T00:16:09;10.9;;;9.8;;
15498;SDS011;7851;52.260;6.030;2023-05-07T00:17:09;11.7;;;10.2;;
15498;SDS011;7851;52.260;6.030;2023-05-07T00:18:09;11.9;;;10.4;;
15498;SDS011;7851;52.260;6.030;2023-05-07T00:19:09;11.5;;;10.3;;
15498;SDS011;7851;52.260;6.030;2023-05-07T00:20:09;11.3;;;10.2;;
15498;SDS011;7851;52.260;6.030;2023-05-07T00:21:09;11.3;;;10.1;;
15498;SDS011;7851;52.260;6.030;2023-05-07T00:22:09;11.8;;;10.7;;
15498;SDS011;7851;52.260;6.030;2023-05-07T00:23:09;12.4;;;10.3;;
15498;SDS011;7851;52.260;6.030;2023-05-07T00:24:09;11.9;;;10.7;;
15498;SDS011;7851;52.260;6.030;2023-05-07T00:25:09;12.6;;;11.3;;
15498;SDS011;7851;52.260;6.030;2023-05-07T00:26:09;12.7;;;11.4;;
15498;SDS011;7851;52.260;6.030;2023-05-07T00:27:09;13.1;;;11.8;;
15498;SDS011;7851;52.260;6.030;2023-05-07T00:28:09;14.5;;;12.6;;
15498;SDS011;7851;52.260;6.030;2023-05-07T00:29:09;13.4;;;12.1;;
15498;SDS011;7851;52.260;6.030;2023-05-07T00:30:09;13.6;;;12.4;;
15498;SDS011;7851;52.260;6.030;2023-05-07T00:31:09;14.5;;;13.1;;
15498;SDS011;7851;52.260;6.030;2023-05-07T00:32:09;15.6;;;13.9;;
15498;SDS011;7851;52.260;6.030;2023-05-07T00:33:09;14.5;;;13;;
15498;SDS011;7851;52.260;6.030;2023-05-07T00:34:09;14.7;;;13.2;;
15498;SDS011;7851;52.260;6.030;2023-05-07T00:35:09;14.4;;;12.9;;
15498;SDS011;7851;52.260;6.030;2023-05-07T00:36:09;15;;;13.5;;
15498;SDS011;7851;52.260;6.030;2023-05-07T00:37:09;16;;;14.3;;
15498;SDS011;7851;52.260;6.030;2023-05-07T00:38:09;18.2;;;14.6;;
15498;SDS011;7851;52.260;6.030;2023-05-07T00:39:09;15.6;;;14.1;;
15498;SDS011;7851;52.260;6.030;2023-05-07T00:40:09;14.9;;;13.4;;
15498;SDS011;7851;52.260;6.030;2023-05-07T00:41:09;14.9;;;13;;
15498;SDS011;7851;52.260;6.030;2023-05-07T00:42:09;17.2;;;14.5;;
15498;SDS011;7851;52.260;6.030;2023-05-07T00:43:09;17.5;;;15.3;;
15498;SDS011;7851;52.260;6.030;2023-05-07T00:44:09;15.8;;;14.3;;
15498;SDS011;7851;52.260;6.030;2023-05-07T00:45:09;16.8;;;15.1;;
15498;SDS011;7851;52.260;6.030;2023-05-07T00:46:09;17;;;15.3;;
15498;SDS011;7851;52.260;6.030;2023-05-07T00:47:09;16.6;;;14.9;;
15498;SDS011;7851;52.260;6.030;2023-05-07T00:48:09;16.3;;;14.6;;
15498;SDS011;7851;52.260;6.030;2023-05-07T00:49:09;15.6;;;14.1;;
15498;SDS011;7851;52.260;6.030;2023-05-07T00:50:09;16.6;;;15;;
15498;SDS011;7851;52.260;6.030;2023-05-07T00:51:09;16.1;;;14.4;;
15498;SDS011;7851;52.260;6.030;2023-05-07T00:52:09;15.6;;;14;;
15498;SDS011;7851;52.260;6.030;2023-05-07T00:53:09;16.4;;;14.8;;
15498;SDS011;7851;52.260;6.030;2023-05-07T00:54:09;16.2;;;14.5;;
15498;SDS011;7851;52.260;6.030;2023-05-07T00:55:09;17;;;15.2;;
15498;SDS011;7851;52.260;6.030;2023-05-07T00:56:09;16.5;;;13.9;;
15498;SDS011;7851;52.260;6.030;2023-05-07T00:57:09;15.5;;;13.8;;
15498;SDS011;7851;52.260;6.030;2023-05-07T00:58:09;15.5;;;13.9;;
15498;SDS011;7851;52.260;6.030;2023-05-07T00:59:09;16.7;;;14.5;;
15498;SDS011;7851;52.260;6.030;2023-05-07T01:00:09;15.9;;;13.9;;
15498;SDS011;7851;52.260;6.030;2023-05-07T01:01:09;17.9;;;16;;
15498;SDS011;7851;52.260;6.030;2023-05-07T01:02:09;16.7;;;15;;
15498;SDS011;7851;52.260;6.030;2023-05-07T01:03:09;17;;;15.4;;
15498;SDS011;7851;52.260;6.030;2023-05-07T01:04:09;19.2;;;15.8;;
15498;SDS011;7851;52.260;6.030;2023-05-07T01:05:09;16.9;;;15.2;;
15498;SDS011;7851;52.260;6.030;2023-05-07T01:06:09;16.6;;;15;;
15498;SDS011;7851;52.260;6.030;2023-05-07T01:07:09;17;;;14.5;;
15498;SDS011;7851;52.260;6.030;2023-05-07T01:08:09;16.6;;;15;;
15498;SDS011;7851;52.260;6.030;2023-05-07T01:09:09;18.2;;;16.5;;
15498;SDS011;7851;52.260;6.030;2023-05-07T01:10:09;17.6;;;15.8;;
15498;SDS011;7851;52.260;6.030;2023-05-07T01:11:09;17.6;;;15.6;;
15498;SDS011;7851;52.260;6.030;2023-05-07T01:12:09;18.8;;;15.5;;
15498;SDS011;7851;52.260;6.030;2023-05-07T01:13:09;17.9;;;16;;
15498;SDS011;7851;52.260;6.030;2023-05-07T01:14:09;18.7;;;16.8;;
15498;SDS011;7851;52.260;6.030;2023-05-07T01:15:09;19.5;;;16.9;;
15498;SDS011;7851;52.260;6.030;2023-05-07T01:16:09;18.6;;;16.8;;
15498;SDS011;7851;52.260;6.030;2023-05-07T01:17:09;18.8;;;16.3;;
15498;SDS011;7851;52.260;6.030;2023-05-07T01:18:09;18;;;16.2;;
15498;SDS011;7851;52.260;6.030;2023-05-07T01:19:09;17.7;;;15.8;;
15498;SDS011;7851;52.260;6.030;2023-05-07T01:20:09;18.3;;;16.5;;
15498;SDS011;7851;52.260;6.030;2023-05-07T01:21:09;17.8;;;16;;
15498;SDS011;7851;52.260;6.030;2023-05-07T01:22:09;19.1;;;17.3;;
15498;SDS011;7851;52.260;6.030;2023-05-07T01:23:09;18.5;;;16.6;;
15498;SDS011;7851;52.260;6.030;2023-05-07T01:24:09;19.1;;;17.3;;
15498;SDS011;7851;52.260;6.030;2023-05-07T01:25:09;18.9;;;17.1;;
15498;SDS011;7851;52.260;6.030;2023-05-07T01:26:09;20.8;;;18.5;;
15498;SDS011;7851;52.260;6.030;2023-05-07T01:27:09;20;;;17.9;;
15498;SDS011;7851;52.260;6.030;2023-05-07T01:28:09;20.3;;;18.3;;
15498;SDS011;7851;52.260;6.030;2023-05-07T01:29:09;19.9;;;18;;
15498;SDS011;7851;52.260;6.030;2023-05-07T01:30:09;18.9;;;16.5;;
15498;SDS011;7851;52.260;6.030;2023-05-07T01:31:09;19;;;17;;
15498;SDS011;7851;52.260;6.030;2023-05-07T01:32:09;19;;;17.1;;
15498;SDS011;7851;52.260;6.030;2023-05-07T01:33:09;20.5;;;18.5;;
15498;SDS011;7851;52.260;6.030;2023-05-07T01:34:09;20.4;;;18.4;;
15498;SDS011;7851;52.260;6.030;2023-05-07T01:35:09;21.3;;;19.1;;
15498;SDS011;7851;52.260;6.030;2023-05-07T01:36:09;20.4;;;18.3;;
15498;SDS011;7851;52.260;6.030;2023-05-07T01:37:09;21.9;;;19.7;;
15498;SDS011;7851;52.260;6.030;2023-05-07T01:38:09;19.6;;;17.5;;
15498;SDS011;7851;52.260;6.030;2023-05-07T01:39:09;27.1;;;19.1;;
15498;SDS011;7851;52.260;6.030;2023-05-07T01:40:09;18;;;16.1;;
15498;SDS011;7851;52.260;6.030;2023-05-07T01:41:09;18.4;;;16.5;;
15498;SDS011;7851;52.260;6.030;2023-05-07T01:42:09;17.1;;;15.1;;
15498;SDS011;7851;52.260;6.030;2023-05-07T01:43:09;16.8;;;14.9;;
15498;SDS011;7851;52.260;6.030;2023-05-07T01:44:09;15.2;;;13.7;;
15498;SDS011;7851;52.260;6.030;2023-05-07T01:45:09;16;;;14.5;;
15498;SDS011;7851;52.260;6.030;2023-05-07T01:46:09;17.1;;;15.3;;
15498;SDS011;7851;52.260;6.030;2023-05-07T01:47:09;18;;;16.1;;
15498;SDS011;7851;52.260;6.030;2023-05-07T01:48:09;18.2;;;16.3;;
15498;SDS011;7851;52.260;6.030;2023-05-07T01:49:09;19.5;;;17.4;;
15498;SDS011;7851;52.260;6.030;2023-05-07T01:50:09;18.9;;;17;;
15498;SDS011;7851;52.260;6.030;2023-05-07T01:51:09;19.8;;;17.8;;
15498;SDS011;7851;52.260;6.030;2023-05-07T01:52:09;18.9;;;17.1;;
15498;SDS011;7851;52.260;6.030;2023-05-07T01:53:09;19.3;;;17.2;;
15498;SDS011;7851;52.260;6.030;2023-05-07T01:54:09;19.6;;;17.6;;
15498;SDS011;7851;52.260;6.030;2023-05-07T01:55:09;19.9;;;17.8;;
15498;SDS011;7851;52.260;6.030;2023-05-07T01:56:09;19.5;;;17.4;;
15498;SDS011;7851;52.260;6.030;2023-05-07T01:57:09;20;;;18;;
15498;SDS011;7851;52.260;6.030;2023-05-07T01:58:09;19.6;;;17.6;;
15498;SDS011;7851;52.260;6.030;2023-05-07T01:59:09;19.2;;;17.2;;
15498;SDS011;7851;52.260;6.030;2023-05-07T02:00:09;21.1;;;18.9;;
15498;SDS011;7851;52.260;6.030;2023-05-07T02:01:09;20.8;;;18.8;;
15498;SDS011;7851;52.260;6.030;2023-05-07T02:02:09;20.8;;;18.6;;
15498;SDS011;7851;52.260;6.030;2023-05-07T02:03:09;20.7;;;18.5;;
15498;SDS011;7851;52.260;6.030;2023-05-07T02:04:09;20.3;;;18.2;;
15498;SDS011;7851;52.260;6.030;2023-05-07T02:05:09;23.1;;;20.7;;
15498;SDS011;7851;52.260;6.030;2023-05-07T02:06:09;24;;;18.2;;
15498;SDS011;7851;52.260;6.030;2023-05-07T02:07:09;19.6;;;17.8;;
15498;SDS011;7851;52.260;6.030;2023-05-07T02:08:09;20.6;;;18.7;;
15498;SDS011;7851;52.260;6.030;2023-05-07T02:09:09;20.5;;;18.4;;
15498;SDS011;7851;52.260;6.030;2023-05-07T02:10:09;21.7;;;19.6;;
15498;SDS011;7851;52.260;6.030;2023-05-07T02:11:09;19;;;17.1;;
15498;SDS011;7851;52.260;6.030;2023-05-07T02:12:09;19.8;;;17.7;;
15498;SDS011;7851;52.260;6.030;2023-05-07T02:13:09;20;;;17.4;;
15498;SDS011;7851;52.260;6.030;2023-05-07T02:14:09;19.4;;;17.3;;
15498;SDS011;7851;52.260;6.030;2023-05-07T02:15:09;18.6;;;16.7;;
15498;SDS011;7851;52.260;6.030;2023-05-07T02:16:09;17.8;;;16.1;;
15498;SDS011;7851;52.260;6.030;2023-05-07T02:17:09;19.1;;;17.1;;
15498;SDS011;7851;52.260;6.030;2023-05-07T02:18:09;20.6;;;18.4;;
15498;SDS011;7851;52.260;6.030;2023-05-07T02:19:09;19.8;;;17.7;;
15498;SDS011;7851;52.260;6.030;2023-05-07T02:20:09;19.5;;;17.2;;
15498;SDS011;7851;52.260;6.030;2023-05-07T02:21:08;18;;;16;;
15498;SDS011;7851;52.260;6.030;2023-05-07T02:22:09;17.6;;;15.9;;
15498;SDS011;7851;52.260;6.030;2023-05-07T02:23:09;19.6;;;17.5;;
15498;SDS011;7851;52.260;6.030;2023-05-07T02:24:09;19.4;;;17.5;;
15498;SDS011;7851;52.260;6.030;2023-05-07T02:25:09;20.2;;;17.5;;
15498;SDS011;7851;52.260;6.030;2023-05-07T02:26:09;20;;;17.9;;
15498;SDS011;7851;52.260;6.030;2023-05-07T02:27:09;19.4;;;17.4;;
15498;SDS011;7851;52.260;6.030;2023-05-07T02:28:09;19.4;;;16.8;;
15498;SDS011;7851;52.260;6.030;2023-05-07T02:29:09;20.6;;;18.6;;
15498;SDS011;7851;52.260;6.030;2023-05-07T02:30:09;19.4;;;17.4;;
15498;SDS011;7851;52.260;6.030;2023-05-07T02:31:09;19.5;;;17.6;;
15498;SDS011;7851;52.260;6.030;2023-05-07T02:32:09;20.4;;;18.3;;
15498;SDS011;7851;52.260;6.030;2023-05-07T02:33:09;18.4;;;16.5;;
15498;SDS011;7851;52.260;6.030;2023-05-07T02:34:09;18.7;;;16.9;;
15498;SDS011;7851;52.260;6.030;2023-05-07T02:35:09;22.4;;;20.3;;
15498;SDS011;7851;52.260;6.030;2023-05-07T02:36:09;19.9;;;17.8;;
15498;SDS011;7851;52.260;6.030;2023-05-07T02:37:08;21.5;;;19.2;;
15498;SDS011;7851;52.260;6.030;2023-05-07T02:38:09;21.3;;;19.3;;
15498;SDS011;7851;52.260;6.030;2023-05-07T02:39:08;22.2;;;18.3;;
15498;SDS011;7851;52.260;6.030;2023-05-07T02:40:09;20.8;;;18.7;;
15498;SDS011;7851;52.260;6.030;2023-05-07T02:41:09;23;;;19.3;;
15498;SDS011;7851;52.260;6.030;2023-05-07T02:42:09;21.7;;;19.4;;
15498;SDS011;7851;52.260;6.030;2023-05-07T02:43:09;21.5;;;19.3;;
15498;SDS011;7851;52.260;6.030;2023-05-07T02:44:09;21;;;18.7;;
15498;SDS011;7851;52.260;6.030;2023-05-07T02:45:09;21.1;;;19;;
15498;SDS011;7851;52.260;6.030;2023-05-07T02:46:09;22.7;;;20.3;;
15498;SDS011;7851;52.260;6.030;2023-05-07T02:47:09;21.5;;;19.4;;
15498;SDS011;7851;52.260;6.030;2023-05-07T02:48:09;21.1;;;18.8;;
15498;SDS011;7851;52.260;6.030;2023-05-07T02:49:09;21.5;;;19.4;;
15498;SDS011;7851;52.260;6.030;2023-05-07T02:50:09;22;;;19.7;;
15498;SDS011;7851;52.260;6.030;2023-05-07T02:51:09;21.1;;;19;;
15498;SDS011;7851;52.260;6.030;2023-05-07T02:52:09;20.9;;;18.9;;
15498;SDS011;7851;52.260;6.030;2023-05-07T02:53:09;22.9;;;19.7;;
15498;SDS011;7851;52.260;6.030;2023-05-07T02:54:09;20.9;;;18.8;;
15498;SDS011;7851;52.260;6.030;2023-05-07T02:55:09;22.3;;;20;;
15498;SDS011;7851;52.260;6.030;2023-05-07T02:56:09;24.3;;;21.7;;
15498;SDS011;7851;52.260;6.030;2023-05-07T02:57:09;24.8;;;22.3;;
15498;SDS011;7851;52.260;6.030;2023-05-07T02:58:09;23;;;20.8;;
15498;SDS011;7851;52.260;6.030;2023-05-07T02:59:09;23.7;;;20.8;;
15498;SDS011;7851;52.260;6.030;2023-05-07T03:00:10;22.6;;;20.5;;
15498;SDS011;7851;52.260;6.030;2023-05-07T03:01:09;22;;;19.7;;
15498;SDS011;7851;52.260;6.030;2023-05-07T03:02:09;23.1;;;20.9;;
15498;SDS011;7851;52.260;6.030;2023-05-07T03:03:08;23;;;20.7;;
15498;SDS011;7851;52.260;6.030;2023-05-07T03:04:09;23;;;20.8;;
15498;SDS011;7851;52.260;6.030;2023-05-07T03:05:09;27.2;;;24.5;;
15498;SDS011;7851;52.260;6.030;2023-05-07T03:06:09;22.9;;;20.5;;
15498;SDS011;7851;52.260;6.030;2023-05-07T03:07:08;22.7;;;20.5;;
15498;SDS011;7851;52.260;6.030;2023-05-07T03:08:09;22.8;;;20.5;;
15498;SDS011;7851;52.260;6.030;2023-05-07T03:09:09;22.6;;;20.2;;
15498;SDS011;7851;52.260;6.030;2023-05-07T03:10:09;22.8;;;20.4;;
15498;SDS011;7851;52.260;6.030;2023-05-07T03:11:09;23;;;20.6;;
15498;SDS011;7851;52.260;6.030;2023-05-07T03:12:09;23.5;;;21.1;;
15498;SDS011;7851;52.260;6.030;2023-05-07T03:13:08;21.2;;;19.1;;
15498;SDS011;7851;52.260;6.030;2023-05-07T03:14:08;23.6;;;21.2;;
15498;SDS011;7851;52.260;6.030;2023-05-07T03:15:09;24.6;;;22.1;;
15498;SDS011;7851;52.260;6.030;2023-05-07T03:16:08;24.3;;;22;;
15498;SDS011;7851;52.260;6.030;2023-05-07T03:17:09;24.5;;;22.1;;
15498;SDS011;7851;52.260;6.030;2023-05-07T03:18:09;25.4;;;22.8;;
15498;SDS011;7851;52.260;6.030;2023-05-07T03:19:09;25.5;;;22.7;;
15498;SDS011;7851;52.260;6.030;2023-05-07T03:20:09;25.3;;;22.6;;
15498;SDS011;7851;52.260;6.030;2023-05-07T03:21:08;25.5;;;22.9;;
15498;SDS011;7851;52.260;6.030;2023-05-07T03:22:09;25.1;;;22.5;;
15498;SDS011;7851;52.260;6.030;2023-05-07T03:23:08;23.1;;;20.9;;
15498;SDS011;7851;52.260;6.030;2023-05-07T03:24:09;26.6;;;24.1;;
15498;SDS011;7851;52.260;6.030;2023-05-07T03:25:09;23.6;;;21.1;;
15498;SDS011;7851;52.260;6.030;2023-05-07T03:26:09;25.1;;;22.5;;
15498;SDS011;7851;52.260;6.030;2023-05-07T03:27:09;23.6;;;21.2;;
15498;SDS011;7851;52.260;6.030;2023-05-07T03:28:09;23.3;;;21;;
15498;SDS011;7851;52.260;6.030;2023-05-07T03:29:09;23.7;;;21.3;;
15498;SDS011;7851;52.260;6.030;2023-05-07T03:30:09;23.1;;;20.9;;
15498;SDS011;7851;52.260;6.030;2023-05-07T03:31:09;24.4;;;22.1;;
15498;SDS011;7851;52.260;6.030;2023-05-07T03:32:09;23.5;;;21.3;;
15498;SDS011;7851;52.260;6.030;2023-05-07T03:33:08;24.8;;;22.4;;
15498;SDS011;7851;52.260;6.030;2023-05-07T03:34:09;23.7;;;21.2;;
15498;SDS011;7851;52.260;6.030;2023-05-07T03:35:09;23.6;;;21.2;;
15498;SDS011;7851;52.260;6.030;2023-05-07T03:36:09;21.7;;;19.5;;
15498;SDS011;7851;52.260;6.030;2023-05-07T03:37:09;20.3;;;18.2;;
15498;SDS011;7851;52.260;6.030;2023-05-07T03:38:08;21;;;18.8;;
15498;SDS011;7851;52.260;6.030;2023-05-07T03:39:09;22;;;19.8;;
15498;SDS011;7851;52.260;6.030;2023-05-07T03:40:09;21.6;;;19.4;;
15498;SDS011;7851;52.260;6.030;2023-05-07T03:41:09;21.7;;;19.6;;
15498;SDS011;7851;52.260;6.030;2023-05-07T03:42:09;22.6;;;20.3;;
15498;SDS011;7851;52.260;6.030;2023-05-07T03:43:09;22.9;;;20.4;;
15498;SDS011;7851;52.260;6.030;2023-05-07T03:44:09;23;;;20.7;;
15498;SDS011;7851;52.260;6.030;2023-05-07T03:45:09;23.7;;;21.1;;
15498;SDS011;7851;52.260;6.030;2023-05-07T03:46:09;22.3;;;20.1;;
15498;SDS011;7851;52.260;6.030;2023-05-07T03:47:09;24.5;;;22;;
15498;SDS011;7851;52.260;6.030;2023-05-07T03:48:09;23.5;;;20.9;;
15498;SDS011;7851;52.260;6.030;2023-05-07T03:49:08;23.8;;;21.3;;
15498;SDS011;7851;52.260;6.030;2023-05-07T03:50:09;22.9;;;20.7;;
15498;SDS011;7851;52.260;6.030;2023-05-07T03:51:09;24.1;;;20.8;;
15498;SDS011;7851;52.260;6.030;2023-05-07T03:52:09;24;;;21.4;;
15498;SDS011;7851;52.260;6.030;2023-05-07T03:53:09;23.3;;;20.7;;
15498;SDS011;7851;52.260;6.030;2023-05-07T03:54:09;25;;;22.5;;
15498;SDS011;7851;52.260;6.030;2023-05-07T03:55:09;25.6;;;23;;
15498;SDS011;7851;52.260;6.030;2023-05-07T03:56:09;24.3;;;21.6;;
15498;SDS011;7851;52.260;6.030;2023-05-07T03:57:08;23;;;20.7;;
15498;SDS011;7851;52.260;6.030;2023-05-07T03:58:08;23;;;20.7;;
15498;SDS011;7851;52.260;6.030;2023-05-07T03:59:08;24.4;;;21.8;;
15498;SDS011;7851;52.260;6.030;2023-05-07T04:00:09;24.9;;;22.3;;
15498;SDS011;7851;52.260;6.030;2023-05-07T04:01:09;23.5;;;21.3;;
15498;SDS011;7851;52.260;6.030;2023-05-07T04:02:09;25.5;;;22.7;;
15498;SDS011;7851;52.260;6.030;2023-05-07T04:03:08;25.2;;;22.7;;
15498;SDS011;7851;52.260;6.030;2023-05-07T04:04:08;26.5;;;21.7;;
15498;SDS011;7851;52.260;6.030;2023-05-07T04:05:08;24.5;;;22;;
15498;SDS011;7851;52.260;6.030;2023-05-07T04:06:08;25.3;;;22.7;;
15498;SDS011;7851;52.260;6.030;2023-05-07T04:07:08;23.7;;;21.5;;
15498;SDS011;7851;52.260;6.030;2023-05-07T04:08:08;26.8;;;24.1;;
15498;SDS011;7851;52.260;6.030;2023-05-07T04:09:09;23.6;;;21.3;;
15498;SDS011;7851;52.260;6.030;2023-05-07T04:10:09;26.2;;;23.5;;
15498;SDS011;7851;52.260;6.030;2023-05-07T04:11:09;25.2;;;22.7;;
15498;SDS011;7851;52.260;6.030;2023-05-07T04:12:08;23.9;;;21.5;;
15498;SDS011;7851;52.260;6.030;2023-05-07T04:13:08;26.4;;;23.7;;
15498;SDS011;7851;52.260;6.030;2023-05-07T04:14:09;25.8;;;22.6;;
15498;SDS011;7851;52.260;6.030;2023-05-07T04:15:09;25.1;;;21.7;;
15498;SDS011;7851;52.260;6.030;2023-05-07T04:16:09;23.1;;;20.8;;
15498;SDS011;7851;52.260;6.030;2023-05-07T04:17:08;23.7;;;21;;
15498;SDS011;7851;52.260;6.030;2023-05-07T04:18:08;22.9;;;20.4;;
15498;SDS011;7851;52.260;6.030;2023-05-07T04:19:08;23.8;;;20.5;;
15498;SDS011;7851;52.260;6.030;2023-05-07T04:20:09;24.1;;;21.6;;
15498;SDS011;7851;52.260;6.030;2023-05-07T04:21:13;26.1;;;23.4;;
15498;SDS011;7851;52.260;6.030;2023-05-07T04:22:09;24.9;;;22.3;;
15498;SDS011;7851;52.260;6.030;2023-05-07T04:23:09;26.7;;;24.1;;
15498;SDS011;7851;52.260;6.030;2023-05-07T04:24:08;27.3;;;24.5;;
15498;SDS011;7851;52.260;6.030;2023-05-07T04:25:09;27.5;;;24.4;;
15498;SDS011;7851;52.260;6.030;2023-05-07T04:26:09;25.9;;;23.3;;
15498;SDS011;7851;52.260;6.030;2023-05-07T04:27:08;27;;;24.1;;
15498;SDS011;7851;52.260;6.030;2023-05-07T04:28:08;26.3;;;23.5;;
15498;SDS011;7851;52.260;6.030;2023-05-07T04:29:09;25.6;;;23;;
15498;SDS011;7851;52.260;6.030;2023-05-07T04:30:09;24.2;;;21;;
15498;SDS011;7851;52.260;6.030;2023-05-07T04:31:09;23.3;;;20.9;;
15498;SDS011;7851;52.260;6.030;2023-05-07T04:32:09;24.4;;;21.2;;
15498;SDS011;7851;52.260;6.030;2023-05-07T04:33:09;24;;;21.5;;
15498;SDS011;7851;52.260;6.030;2023-05-07T04:34:08;24.7;;;21.2;;
15498;SDS011;7851;52.260;6.030;2023-05-07T04:35:09;24.4;;;21.2;;
15498;SDS011;7851;52.260;6.030;2023-05-07T04:36:09;24.3;;;21.6;;
15498;SDS011;7851;52.260;6.030;2023-05-07T04:37:08;22.8;;;20.4;;
15498;SDS011;7851;52.260;6.030;2023-05-07T04:38:08;22.6;;;20.2;;
15498;SDS011;7851;52.260;6.030;2023-05-07T04:39:08;25.2;;;21.5;;
15498;SDS011;7851;52.260;6.030;2023-05-07T04:40:09;22.2;;;19.9;;
15498;SDS011;7851;52.260;6.030;2023-05-07T04:41:09;23.9;;;20.5;;
15498;SDS011;7851;52.260;6.030;2023-05-07T04:42:08;23.2;;;20.7;;
15498;SDS011;7851;52.260;6.030;2023-05-07T04:43:08;23.8;;;21.3;;
15498;SDS011;7851;52.260;6.030;2023-05-07T04:44:09;22.7;;;20.2;;
15498;SDS011;7851;52.260;6.030;2023-05-07T04:45:09;25.4;;;20.8;;
15498;SDS011;7851;52.260;6.030;2023-05-07T04:46:08;25.4;;;21;;
15498;SDS011;7851;52.260;6.030;2023-05-07T04:47:09;22.4;;;19.5;;
15498;SDS011;7851;52.260;6.030;2023-05-07T04:48:08;23.3;;;20.1;;
15498;SDS011;7851;52.260;6.030;2023-05-07T04:49:08;23.2;;;20.2;;
15498;SDS011;7851;52.260;6.030;2023-05-07T04:50:09;25.6;;;19.7;;
15498;SDS011;7851;52.260;6.030;2023-05-07T04:51:08;22.5;;;20.2;;
15498;SDS011;7851;52.260;6.030;2023-05-07T04:52:09;23.9;;;20.2;;
15498;SDS011;7851;52.260;6.030;2023-05-07T04:53:09;22.7;;;19.9;;
15498;SDS011;7851;52.260;6.030;2023-05-07T04:54:09;21.5;;;19.2;;
15498;SDS011;7851;52.260;6.030;2023-05-07T04:55:09;21.5;;;19.3;;
15498;SDS011;7851;52.260;6.030;2023-05-07T04:56:08;23.8;;;20.1;;
15498;SDS011;7851;52.260;6.030;2023-05-07T04:57:08;22.7;;;20.3;;
15498;SDS011;7851;52.260;6.030;2023-05-07T04:58:09;21.8;;;19.5;;
15498;SDS011;7851;52.260;6.030;2023-05-07T04:59:09;22.1;;;19.8;;
15498;SDS011;7851;52.260;6.030;2023-05-07T05:00:09;22.1;;;19.7;;
15498;SDS011;7851;52.260;6.030;2023-05-07T05:01:08;22.2;;;19.4;;
15498;SDS011;7851;52.260;6.030;2023-05-07T05:02:09;22;;;19.6;;
15498;SDS011;7851;52.260;6.030;2023-05-07T05:03:08;23.7;;;20.8;;
15498;SDS011;7851;52.260;6.030;2023-05-07T05:04:08;24.4;;;20.3;;
15498;SDS011;7851;52.260;6.030;2023-05-07T05:05:08;23.6;;;21.1;;
15498;SDS011;7851;52.260;6.030;2023-05-07T05:06:09;24;;;21.5;;
15498;SDS011;7851;52.260;6.030;2023-05-07T05:07:08;22.8;;;20.5;;
15498;SDS011;7851;52.260;6.030;2023-05-07T05:08:08;24.2;;;21.2;;
15498;SDS011;7851;52.260;6.030;2023-05-07T05:09:08;24;;;21.2;;
15498;SDS011;7851;52.260;6.030;2023-05-07T05:10:09;23.8;;;19.7;;
15498;SDS011;7851;52.260;6.030;2023-05-07T05:11:09;22.5;;;20.1;;
15498;SDS011;7851;52.260;6.030;2023-05-07T05:12:08;22.5;;;20.1;;
15498;SDS011;7851;52.260;6.030;2023-05-07T05:13:09;23.3;;;20.7;;
15498;SDS011;7851;52.260;6.030;2023-05-07T05:14:08;23.4;;;19.8;;
15498;SDS011;7851;52.260;6.030;2023-05-07T05:15:09;22.9;;;20.5;;
15498;SDS011;7851;52.260;6.030;2023-05-07T05:16:08;24.3;;;20.9;;
15498;SDS011;7851;52.260;6.030;2023-05-07T05:17:08;25.2;;;20.3;;
15498;SDS011;7851;52.260;6.030;2023-05-07T05:18:08;22.1;;;19.8;;
15498;SDS011;7851;52.260;6.030;2023-05-07T05:19:08;24.8;;;20.3;;
15498;SDS011;7851;52.260;6.030;2023-05-07T05:20:09;25.9;;;21;;
15498;SDS011;7851;52.260;6.030;2023-05-07T05:21:08;23.8;;;20.6;;
15498;SDS011;7851;52.260;6.030;2023-05-07T05:22:09;24.3;;;21.5;;
15498;SDS011;7851;52.260;6.030;2023-05-07T05:23:08;24;;;21.2;;
15498;SDS011;7851;52.260;6.030;2023-05-07T05:24:08;24.7;;;21.5;;
15498;SDS011;7851;52.260;6.030;2023-05-07T05:25:09;25.1;;;20.4;;
15498;SDS011;7851;52.260;6.030;2023-05-07T05:26:08;23.8;;;21.2;;
15498;SDS011;7851;52.260;6.030;2023-05-07T05:27:08;23.3;;;20.8;;
15498;SDS011;7851;52.260;6.030;2023-05-07T05:28:08;24.2;;;21.3;;
15498;SDS011;7851;52.260;6.030;2023-05-07T05:29:08;24.7;;;21.7;;
15498;SDS011;7851;52.260;6.030;2023-05-07T05:30:09;23.3;;;20.8;;
15498;SDS011;7851;52.260;6.030;2023-05-07T05:31:08;23.7;;;20.9;;
15498;SDS011;7851;52.260;6.030;2023-05-07T05:32:08;26.9;;;21;;
15498;SDS011;7851;52.260;6.030;2023-05-07T05:33:08;25.3;;;21.1;;
15498;SDS011;7851;52.260;6.030;2023-05-07T05:34:08;25.6;;;21.7;;
15498;SDS011;7851;52.260;6.030;2023-05-07T05:35:08;23.8;;;21.3;;
15498;SDS011;7851;52.260;6.030;2023-05-07T05:36:09;27.8;;;22;;
15498;SDS011;7851;52.260;6.030;2023-05-07T05:37:08;25;;;22.3;;
15498;SDS011;7851;52.260;6.030;2023-05-07T05:38:08;24.5;;;21.8;;
15498;SDS011;7851;52.260;6.030;2023-05-07T05:39:08;24.1;;;21.6;;
15498;SDS011;7851;52.260;6.030;2023-05-07T05:40:09;24.4;;;21.7;;
15498;SDS011;7851;52.260;6.030;2023-05-07T05:41:08;25.9;;;22.1;;
15498;SDS011;7851;52.260;6.030;2023-05-07T05:42:08;28.3;;;21.4;;
15498;SDS011;7851;52.260;6.030;2023-05-07T05:43:09;27.3;;;21.6;;
15498;SDS011;7851;52.260;6.030;2023-05-07T05:44:08;25.2;;;22.5;;
15498;SDS011;7851;52.260;6.030;2023-05-07T05:45:09;24.3;;;21.6;;
15498;SDS011;7851;52.260;6.030;2023-05-07T05:46:08;25.6;;;22.5;;
15498;SDS011;7851;52.260;6.030;2023-05-07T05:47:08;24.5;;;21.6;;
15498;SDS011;7851;52.260;6.030;2023-05-07T05:48:08;27.8;;;22.9;;
15498;SDS011;7851;52.260;6.030;2023-05-07T05:49:08;24.4;;;21.8;;
15498;SDS011;7851;52.260;6.030;2023-05-07T05:50:09;24.6;;;22;;
15498;SDS011;7851;52.260;6.030;2023-05-07T05:51:08;25.9;;;22.3;;
15498;SDS011;7851;52.260;6.030;2023-05-07T05:52:09;27.2;;;22.5;;
15498;SDS011;7851;52.260;6.030;2023-05-07T05:53:08;26;;;22.7;;
15498;SDS011;7851;52.260;6.030;2023-05-07T05:54:08;26.6;;;23.2;;
15498;SDS011;7851;52.260;6.030;2023-05-07T05:55:08;25.4;;;22.5;;
15498;SDS011;7851;52.260;6.030;2023-05-07T05:56:08;26.6;;;22.6;;
15498;SDS011;7851;52.260;6.030;2023-05-07T05:57:08;24.8;;;22;;
15498;SDS011;7851;52.260;6.030;2023-05-07T05:58:09;24.4;;;21.9;;
15498;SDS011;7851;52.260;6.030;2023-05-07T05:59:08;24.5;;;22;;
15498;SDS011;7851;52.260;6.030;2023-05-07T06:00:09;24.8;;;22.2;;
15498;SDS011;7851;52.260;6.030;2023-05-07T06:01:08;25.1;;;21.6;;
15498;SDS011;7851;52.260;6.030;2023-05-07T06:02:08;25;;;21.8;;
15498;SDS011;7851;52.260;6.030;2023-05-07T06:03:08;29.5;;;22.4;;
15498;SDS011;7851;52.260;6.030;2023-05-07T06:04:08;25.4;;;22.6;;
15498;SDS011;7851;52.260;6.030;2023-05-07T06:05:09;24.6;;;22.1;;
15498;SDS011;7851;52.260;6.030;2023-05-07T06:06:08;25.6;;;22.3;;
15498;SDS011;7851;52.260;6.030;2023-05-07T06:07:08;26;;;23.2;;
15498;SDS011;7851;52.260;6.030;2023-05-07T06:08:08;28.6;;;23.2;;
15498;SDS011;7851;52.260;6.030;2023-05-07T06:09:08;27.3;;;24.3;;